(°C)
27°
28°
29°
30°
29°
29°
28°
(°C)
29°
29°
30°
30°
30°
30°
29°
K
K
KDK
KDK
KDK
KDK
KDK
(km/h)
8-20
9-16
9-21
11-18
12-13
13-15
11-18
(mm)
0
0
0
0
0
0
0
(%)
0
0
1
1
1
1
1

Napfelkelte

/ 51.4°
sun-icon
UV 5
07:52
20:01
Hold (fogyó félhold) (220°)
21:56
11:06

METAR Alcantarilla (LERI)-ért

Idő Feltételek Hőmérséklet/
Harmatpont
Szél Látási viszonyok Időjárás Felhők Légnyomás Módosítás Nyers
VFR 27°C / 18°C 300º variable 250º to 010º 3kt >10km - Scattered Clouds 3300ft 1015 No Significant change LERI 241100Z 30003KT 250V010 9999 SCT033 BKN038 27/18 Q1015 NOSIG
VFR 27°C / 18°C 330º variable 260º to 010º 4kt >10km - Broken Clouds 3300ft 1016 No Significant change LERI 241030Z 33004KT 260V010 9999 BKN033 27/18 Q1016 NOSIG
VFR 26°C / 18°C 340º variable 280º to 020º 6kt >10km - Broken Clouds 3100ft 1016 No Significant change LERI 241000Z 34006KT 280V020 9999 BKN031 26/18 Q1016 NOSIG
VFR 26°C / 18°C 300º variable 230º to 360º 4kt >10km - Broken Clouds 3100ft 1016 No Significant change LERI 240930Z 30004KT 230V360 9999 BKN031 26/18 Q1016 NOSIG
VFR 25°C / 18°C 300º variable 240º to 350º 4kt >10km - Broken Clouds 3300ft 1015 No Significant change LERI 240900Z 30004KT 240V350 9999 BKN033 25/18 Q1015 NOSIG
VFR 25°C / 18°C 300º variable 260º to 340º 4kt >10km - Broken Clouds 3100ft 1015 No Significant change LERI 240830Z 30004KT 260V340 9999 BKN031 25/18 Q1015 NOSIG
VFR 24°C / 18°C 290º variable 270º to 350º 3kt >10km - Few Clouds 3100ft 1015 No Significant change LERI 240800Z 29003KT 270V350 9999 FEW031 BKN036 24/18 Q1015 NOSIG
VFR 24°C / 18°C variable 2kt >10km - Broken Clouds 3100ft 1015 No Significant change LERI 240730Z VRB02KT 9999 BKN031 24/18 Q1015 NOSIG
VFR 23°C / 19°C variable 0kt >10km - Broken Clouds 3100ft 1015 No Significant change LERI 240700Z 00000KT 9999 BKN031 23/19 Q1015 NOSIG
VFR 22°C / 19°C 270º 1kt >10km - Broken Clouds 3100ft 1015 No Significant change LERI 240630Z 27001KT 9999 BKN031 22/19 Q1015 NOSIG
VFR 21°C / 18°C variable 0kt >10km - Scattered Clouds 3100ft 1014 No Significant change LERI 240600Z 00000KT 9999 SCT031 BKN036 21/18 Q1014 NOSIG
VFR 25°C / 18°C 70º 11kt >10km - Scattered Clouds 5500ft 1014 No Significant change LERI 231800Z 07011KT 9999 SCT055 25/18 Q1014 NOSIG
VFR 26°C / 18°C 60º 13kt >10km - Scattered Clouds 5700ft 1014 No Significant change LERI 231730Z 06013KT 9999 SCT057 26/18 Q1014 NOSIG
VFR 26°C / 17°C 70º variable 030º to 100º 10kt >10km - Scattered Clouds 6000ft 1014 No Significant change LERI 231700Z 07010KT 030V100 9999 SCT060 26/17 Q1014 NOSIG
VFR 27°C / 17°C 80º variable 050º to 110º 17kt >10km - Scattered Clouds 6000ft 1014 No Significant change LERI 231630Z 08017KT 050V110 9999 SCT060 27/17 Q1014 NOSIG
VFR 28°C / 16°C 80º variable 050º to 110º 14kt >10km - Few Clouds 6000ft 1014 No Significant change LERI 231600Z 08014KT 050V110 9999 FEW060 28/16 Q1014 NOSIG
VFR 28°C / 16°C 90º variable 060º to 130º 14kt >10km - Few Clouds 6000ft 1014 No Significant change LERI 231530Z 09014KT 060V130 9999 FEW060 28/16 Q1014 NOSIG
VFR 29°C / 16°C 70º variable 040º to 110º 13kt >10km - Few Clouds 6000ft 1014 No Significant change LERI 231500Z 07013KT 040V110 9999 FEW060 29/16 Q1014 NOSIG
VFR 29°C / 16°C 80º variable 050º to 110º 10kt >10km - Few Clouds 6000ft 1014 No Significant change LERI 231430Z 08010KT 050V110 9999 FEW060 29/16 Q1014 NOSIG
VFR 29°C / 16°C 70º variable 040º to 110º 9kt >10km - Few Clouds 4500ft 1014 No Significant change LERI 231400Z 07009KT 040V110 9999 FEW045 29/16 Q1014 NOSIG
VFR 29°C / 16°C 60º variable 020º to 100º 7kt >10km - Few Clouds 6000ft 1014 No Significant change LERI 231330Z 06007KT 020V100 9999 FEW060 29/16 Q1014 NOSIG
VFR 29°C / 15°C variable 4kt >10km - Few Clouds 6000ft 1014 No Significant change LERI 231300Z VRB04KT 9999 FEW060 29/15 Q1014 NOSIG
VFR 29°C / 15°C variable 4kt >10km - Few Clouds 5000ft 1015 No Significant change LERI 231230Z VRB04KT 9999 FEW050 29/15 Q1015 NOSIG
VFR 29°C / 15°C variable 3kt >10km - Few Clouds 5000ft 1015 No Significant change LERI 231200Z VRB03KT 9999 FEW050 29/15 Q1015 NOSIG

VFR

27°C / 18°C

[Több]
Szél 300º variable 250º to 010º 3kt
Látási viszonyok >10km
Időjárás -
Felhők Scattered Clouds 3300ft
Légnyomás 1015
Módosítás No Significant change
Nyers LERI 241100Z 30003KT 250V010 9999 SCT033 BKN038 27/18 Q1015 NOSIG

VFR

27°C / 18°C

[Több]
Szél 330º variable 260º to 010º 4kt
Látási viszonyok >10km
Időjárás -
Felhők Broken Clouds 3300ft
Légnyomás 1016
Módosítás No Significant change
Nyers LERI 241030Z 33004KT 260V010 9999 BKN033 27/18 Q1016 NOSIG

VFR

26°C / 18°C

[Több]
Szél 340º variable 280º to 020º 6kt
Látási viszonyok >10km
Időjárás -
Felhők Broken Clouds 3100ft
Légnyomás 1016
Módosítás No Significant change
Nyers LERI 241000Z 34006KT 280V020 9999 BKN031 26/18 Q1016 NOSIG

VFR

26°C / 18°C

[Több]
Szél 300º variable 230º to 360º 4kt
Látási viszonyok >10km
Időjárás -
Felhők Broken Clouds 3100ft
Légnyomás 1016
Módosítás No Significant change
Nyers LERI 240930Z 30004KT 230V360 9999 BKN031 26/18 Q1016 NOSIG

VFR

25°C / 18°C

[Több]
Szél 300º variable 240º to 350º 4kt
Látási viszonyok >10km
Időjárás -
Felhők Broken Clouds 3300ft
Légnyomás 1015
Módosítás No Significant change
Nyers LERI 240900Z 30004KT 240V350 9999 BKN033 25/18 Q1015 NOSIG

VFR

25°C / 18°C

[Több]
Szél 300º variable 260º to 340º 4kt
Látási viszonyok >10km
Időjárás -
Felhők Broken Clouds 3100ft
Légnyomás 1015
Módosítás No Significant change
Nyers LERI 240830Z 30004KT 260V340 9999 BKN031 25/18 Q1015 NOSIG

VFR

24°C / 18°C

[Több]
Szél 290º variable 270º to 350º 3kt
Látási viszonyok >10km
Időjárás -
Felhők Few Clouds 3100ft
Légnyomás 1015
Módosítás No Significant change
Nyers LERI 240800Z 29003KT 270V350 9999 FEW031 BKN036 24/18 Q1015 NOSIG

VFR

24°C / 18°C

[Több]
Szél variable 2kt
Látási viszonyok >10km
Időjárás -
Felhők Broken Clouds 3100ft
Légnyomás 1015
Módosítás No Significant change
Nyers LERI 240730Z VRB02KT 9999 BKN031 24/18 Q1015 NOSIG

VFR

23°C / 19°C

[Több]
Szél variable 0kt
Látási viszonyok >10km
Időjárás -
Felhők Broken Clouds 3100ft
Légnyomás 1015
Módosítás No Significant change
Nyers LERI 240700Z 00000KT 9999 BKN031 23/19 Q1015 NOSIG

VFR

22°C / 19°C

[Több]
Szél 270º 1kt
Látási viszonyok >10km
Időjárás -
Felhők Broken Clouds 3100ft
Légnyomás 1015
Módosítás No Significant change
Nyers LERI 240630Z 27001KT 9999 BKN031 22/19 Q1015 NOSIG

VFR

21°C / 18°C

[Több]
Szél variable 0kt
Látási viszonyok >10km
Időjárás -
Felhők Scattered Clouds 3100ft
Légnyomás 1014
Módosítás No Significant change
Nyers LERI 240600Z 00000KT 9999 SCT031 BKN036 21/18 Q1014 NOSIG

VFR

25°C / 18°C

[Több]
Szél 70º 11kt
Látási viszonyok >10km
Időjárás -
Felhők Scattered Clouds 5500ft
Légnyomás 1014
Módosítás No Significant change
Nyers LERI 231800Z 07011KT 9999 SCT055 25/18 Q1014 NOSIG

VFR

26°C / 18°C

[Több]
Szél 60º 13kt
Látási viszonyok >10km
Időjárás -
Felhők Scattered Clouds 5700ft
Légnyomás 1014
Módosítás No Significant change
Nyers LERI 231730Z 06013KT 9999 SCT057 26/18 Q1014 NOSIG

VFR

26°C / 17°C

[Több]
Szél 70º variable 030º to 100º 10kt
Látási viszonyok >10km
Időjárás -
Felhők Scattered Clouds 6000ft
Légnyomás 1014
Módosítás No Significant change
Nyers LERI 231700Z 07010KT 030V100 9999 SCT060 26/17 Q1014 NOSIG

VFR

27°C / 17°C

[Több]
Szél 80º variable 050º to 110º 17kt
Látási viszonyok >10km
Időjárás -
Felhők Scattered Clouds 6000ft
Légnyomás 1014
Módosítás No Significant change
Nyers LERI 231630Z 08017KT 050V110 9999 SCT060 27/17 Q1014 NOSIG

VFR

28°C / 16°C

[Több]
Szél 80º variable 050º to 110º 14kt
Látási viszonyok >10km
Időjárás -
Felhők Few Clouds 6000ft
Légnyomás 1014
Módosítás No Significant change
Nyers LERI 231600Z 08014KT 050V110 9999 FEW060 28/16 Q1014 NOSIG

VFR

28°C / 16°C

[Több]
Szél 90º variable 060º to 130º 14kt
Látási viszonyok >10km
Időjárás -
Felhők Few Clouds 6000ft
Légnyomás 1014
Módosítás No Significant change
Nyers LERI 231530Z 09014KT 060V130 9999 FEW060 28/16 Q1014 NOSIG

VFR

29°C / 16°C

[Több]
Szél 70º variable 040º to 110º 13kt
Látási viszonyok >10km
Időjárás -
Felhők Few Clouds 6000ft
Légnyomás 1014
Módosítás No Significant change
Nyers LERI 231500Z 07013KT 040V110 9999 FEW060 29/16 Q1014 NOSIG

VFR

29°C / 16°C

[Több]
Szél 80º variable 050º to 110º 10kt
Látási viszonyok >10km
Időjárás -
Felhők Few Clouds 6000ft
Légnyomás 1014
Módosítás No Significant change
Nyers LERI 231430Z 08010KT 050V110 9999 FEW060 29/16 Q1014 NOSIG

VFR

29°C / 16°C

[Több]
Szél 70º variable 040º to 110º 9kt
Látási viszonyok >10km
Időjárás -
Felhők Few Clouds 4500ft
Légnyomás 1014
Módosítás No Significant change
Nyers LERI 231400Z 07009KT 040V110 9999 FEW045 29/16 Q1014 NOSIG

VFR

29°C / 16°C

[Több]
Szél 60º variable 020º to 100º 7kt
Látási viszonyok >10km
Időjárás -
Felhők Few Clouds 6000ft
Légnyomás 1014
Módosítás No Significant change
Nyers LERI 231330Z 06007KT 020V100 9999 FEW060 29/16 Q1014 NOSIG

VFR

29°C / 15°C

[Több]
Szél variable 4kt
Látási viszonyok >10km
Időjárás -
Felhők Few Clouds 6000ft
Légnyomás 1014
Módosítás No Significant change
Nyers LERI 231300Z VRB04KT 9999 FEW060 29/15 Q1014 NOSIG

VFR

29°C / 15°C

[Több]
Szél variable 4kt
Látási viszonyok >10km
Időjárás -
Felhők Few Clouds 5000ft
Légnyomás 1015
Módosítás No Significant change
Nyers LERI 231230Z VRB04KT 9999 FEW050 29/15 Q1015 NOSIG

VFR

29°C / 15°C

[Több]
Szél variable 3kt
Látási viszonyok >10km
Időjárás -
Felhők Few Clouds 5000ft
Légnyomás 1015
Módosítás No Significant change
Nyers LERI 231200Z VRB03KT 9999 FEW050 29/15 Q1015 NOSIG

TAF Alcantarilla (LERI)-ért

From till


Maximum Temperature 31ºC on . Minimum Temperature 21ºC on .
From till Wind variable 2kt. Visibility 10km or more. Scattered Clouds 2000ft. Scattered Clouds 3000ft.
Becoming from till Wind 110º 10kt. Visibility 10km or more. Scattered Clouds 2000ft. Scattered Clouds 3000ft.
Becoming from till Wind 220º 4kt. Visibility 10km or more. Scattered Clouds 2000ft. Scattered Clouds 3000ft.

Nyers: TAF LERI 241100Z 2412/2512 VRB02KT 9999 SCT020 SCT030 TX31/2414Z TN21/2506Z BECMG 2415/2417 11010KT BECMG 2420/2422 22004KT

Aktuális műholdas és esőképek ezen a helyen: Alcantarilla, Spanyolország

A helyszín jelölő a következő helyen van elhelyezve: Alcantarilla. [Több]

A valós idejű műholdas kép ötvözi a nappali látható fényt az éjszakai infravörös sugárzással. Éjjel a kép nem sötét, mivel az infravörös sugárzás képes érzékelni a hőmérséklet-különbségeket. Sajnos az alacsony felhőket és a ködöt nehéz megkülönböztetni a talaj hőmérsékletétől, így az éjszaka folyamán szinte láthatatlanok lehetnek. A Meteosat európai műholdképei valós időben frissülnek minden 5 percben. A GOES-16/GOES-17 (Észak- és Dél-Amerika) és Himawari (Ázsia) képei 10 percenként frissülnek.

A csapadékot radarok és műholdak segítségével határozzák meg. A műholdak által mért éjjeli csapadék becslése kevésbé pontos, mint a nappali. A narancssárga keresztek jelölik azokat a helyeket, ahol villámlás észlelhető (Európa felett).

Minden jog fenntartva 2021 EUMETSAT / meteoblue. nowcast által biztosított villámlással kapcsolatos adatok.

Radarkép ehhez: Alcantarilla

Szitálás
Enyhe
Mérsékelt
Erős
Nagyon nehéz
Jégeső

A helyzetjelző helye: Alcantarilla. Ez az animáció bemutatja a csapadékradart az elmúlt 1 órára vonatkozóan. A szitáló eső vagy enyhe hóesés láthatatlan lehet a radar számára. A csapadék intenzitása színkóddal van jelölve, a világoskéktől a narancssárgáig.
Radar data source: AEMET.

Jelenlegi időjárási viszonyok és figyelmeztetések

EUMETNET – MeteoAlarm

pictomap

Forrás: AEMET

A weboldal és a www.meteoalarm.eu oldal között előfordulhat időeltolódás. A riasztási szintekkel kapcsolatban a lehető legpontosabb információt a www.meteoalarm.eu weboldalon találja, az országos meteorológiai szolgálatok adatai alapján.